createdAt,value
2018-11-23T00:01:11.956Z,49.37
2018-11-23T00:03:44.985Z,52.60
2018-11-23T00:06:17.834Z,51.50
2018-11-23T00:08:51.208Z,47.57
2018-11-23T00:11:25.310Z,56.37
2018-11-23T00:13:58.146Z,49.42
2018-11-23T00:16:31.940Z,50.20
2018-11-23T00:19:05.792Z,49.33
2018-11-23T00:21:38.634Z,51.13
2018-11-23T00:24:11.981Z,51.73
2018-11-23T00:26:45.566Z,58.57
2018-11-23T00:29:20.459Z,63.83
2018-11-23T00:31:54.207Z,58.63
2018-11-23T00:34:27.148Z,56.97
2018-11-23T00:37:01.043Z,62.30
2018-11-23T00:39:34.348Z,61.70
2018-11-23T00:42:07.586Z,56.63
2018-11-23T00:44:41.672Z,58.30
2018-11-23T00:47:16.468Z,58.33
2018-11-23T00:49:50.229Z,57.97
2018-11-23T00:52:23.106Z,67.10
2018-11-23T00:54:56.831Z,66.80
2018-11-23T00:57:30.061Z,65.23
2018-11-23T01:00:05.623Z,67.30
2018-11-23T01:02:38.731Z,75.43
2018-11-23T01:05:14.132Z,75.13
2018-11-23T01:07:48.057Z,68.57
2018-11-23T01:10:22.929Z,57.00
2018-11-23T01:12:56.641Z,65.63
2018-11-23T01:15:30.052Z,66.50
2018-11-23T01:18:03.773Z,59.60
2018-11-23T01:20:38.731Z,68.80
2018-11-23T01:23:12.047Z,76.77
2018-11-23T01:25:46.076Z,65.33
2018-11-23T01:28:18.772Z,72.23
2018-11-23T01:30:51.933Z,73.22
2018-11-23T01:33:25.150Z,71.17
2018-11-23T01:35:58.044Z,64.77
2018-11-23T01:38:30.860Z,72.77
2018-11-23T01:41:06.515Z,80.60
2018-11-23T01:43:39.417Z,73.07
2018-11-23T01:46:12.465Z,68.30
2018-11-23T01:48:45.866Z,78.53
2018-11-23T01:51:18.802Z,68.80
2018-11-23T01:53:52.006Z,67.97
2018-11-23T01:56:26.364Z,74.97
2018-11-23T01:58:59.181Z,69.27
2018-11-23T02:01:32.556Z,73.53
2018-11-23T02:04:06.021Z,55.83
2018-11-23T02:06:38.969Z,69.00
2018-11-23T02:09:11.747Z,70.97
2018-11-23T02:11:45.191Z,70.07
2018-11-23T02:14:17.916Z,64.18
2018-11-23T02:16:50.903Z,65.30
2018-11-23T02:19:24.311Z,60.97
2018-11-23T02:21:57.307Z,70.90
2018-11-23T02:24:30.050Z,66.53
2018-11-23T02:27:04.576Z,65.33
2018-11-23T02:29:37.350Z,62.33
2018-11-23T02:32:10.241Z,70.93
2018-11-23T02:34:44.004Z,64.93
2018-11-23T02:37:18.069Z,71.57
2018-11-23T02:39:50.820Z,73.33
2018-11-23T02:42:24.240Z,72.17
2018-11-23T02:44:57.055Z,70.23
2018-11-23T02:47:30.327Z,81.33
2018-11-23T02:50:06.961Z,78.83
2018-11-23T02:52:40.545Z,81.47
2018-11-23T02:55:14.503Z,79.27
2018-11-23T02:57:47.853Z,86.17
2018-11-23T03:00:22.063Z,79.83
2018-11-23T03:02:54.844Z,86.93
2018-11-23T03:05:29.196Z,85.97
2018-11-23T03:08:02.092Z,92.63
2018-11-23T03:10:34.881Z,80.30
2018-11-23T03:13:08.300Z,83.77
2018-11-23T03:15:41.432Z,86.40
2018-11-23T03:18:14.183Z,91.43
2018-11-23T03:20:47.411Z,93.87
2018-11-23T03:23:20.181Z,86.67
2018-11-23T03:25:53.017Z,81.10
2018-11-23T03:28:27.042Z,96.93
2018-11-23T03:30:59.924Z,93.17
2018-11-23T03:33:32.896Z,91.67
2018-11-23T03:36:06.601Z,97.23
2018-11-23T03:38:39.489Z,101.70
2018-11-23T03:41:12.336Z,93.43
2018-11-23T03:43:46.082Z,90.40
2018-11-23T03:46:18.955Z,93.50
2018-11-23T03:48:51.981Z,90.87
2018-11-23T03:51:26.348Z,93.17
2018-11-23T03:53:59.198Z,92.43
2018-11-23T03:56:32.236Z,92.23
2018-11-23T03:59:06.038Z,81.50
2018-11-23T04:01:38.848Z,84.70
2018-11-23T04:04:11.710Z,84.80
2018-11-23T04:06:45.369Z,76.20
2018-11-23T04:09:18.513Z,73.63
2018-11-23T04:11:51.209Z,74.07
2018-11-23T04:14:24.813Z,73.80
2018-11-23T04:16:57.631Z,71.07
2018-11-23T04:19:30.558Z,79.37
2018-11-23T04:22:04.284Z,76.03
2018-11-23T04:24:37.790Z,80.33
2018-11-23T04:27:10.587Z,64.45
2018-11-23T04:29:44.024Z,68.57
2018-11-23T04:32:17.127Z,75.83
2018-11-23T04:34:50.012Z,71.17
2018-11-23T04:37:23.436Z,63.65
2018-11-23T04:39:56.398Z,61.23
2018-11-23T04:42:29.182Z,60.08
2018-11-23T04:45:04.852Z,68.73
2018-11-23T04:47:38.508Z,68.50
2018-11-23T04:50:13.748Z,69.50
2018-11-23T04:52:47.094Z,67.80
2018-11-23T04:55:20.009Z,65.87
2018-11-23T04:57:53.778Z,65.87
2018-11-23T05:00:27.456Z,66.45
2018-11-23T05:03:01.181Z,71.13
2018-11-23T05:05:34.381Z,65.57
2018-11-23T05:08:09.310Z,66.33
2018-11-23T05:10:42.276Z,65.40
2018-11-23T05:13:15.045Z,68.93
2018-11-23T05:15:48.424Z,72.07
2018-11-23T05:18:21.167Z,71.33
2018-11-23T05:20:54.586Z,66.57
2018-11-23T05:23:28.144Z,71.40
2018-11-23T05:26:01.036Z,69.73
2018-11-23T05:28:33.788Z,64.53
2018-11-23T05:31:09.245Z,65.90
2018-11-23T05:33:41.985Z,60.50
2018-11-23T05:36:15.484Z,61.87
2018-11-23T05:38:50.357Z,63.97
2018-11-23T05:41:24.288Z,63.67
2018-11-23T05:43:57.137Z,59.17
2018-11-23T05:46:32.120Z,63.90
2018-11-23T05:49:08.117Z,59.20
2018-11-23T05:51:40.938Z,68.60
2018-11-23T05:54:14.500Z,61.73
2018-11-23T05:56:47.491Z,73.07
2018-11-23T05:59:20.285Z,68.03
2018-11-23T06:01:53.836Z,74.27
2018-11-23T06:04:26.654Z,75.93
2018-11-23T06:06:59.415Z,73.07
2018-11-23T06:09:32.395Z,79.67
2018-11-23T06:12:06.340Z,66.80
2018-11-23T06:14:39.573Z,65.33
2018-11-23T06:17:14.261Z,77.60
2018-11-23T06:19:47.465Z,69.37
2018-11-23T06:22:20.472Z,67.57
2018-11-23T06:24:54.419Z,72.23
2018-11-23T06:27:28.222Z,68.83
2018-11-23T06:30:00.996Z,64.67
2018-11-23T06:32:57.817Z,60.47
2018-11-23T06:35:31.169Z,64.97
2018-11-23T06:38:04.839Z,61.25
2018-11-23T06:40:37.696Z,56.27
2018-11-23T06:43:10.621Z,66.43
2018-11-23T06:45:44.393Z,70.93
2018-11-23T06:48:19.951Z,62.55
2018-11-23T06:50:53.849Z,65.33
2018-11-23T06:53:27.166Z,67.30
2018-11-23T06:56:03.452Z,64.83
2018-11-23T06:58:36.474Z,69.87
2018-11-23T07:01:10.901Z,64.30
2018-11-23T07:03:46.810Z,67.67
2018-11-23T07:06:19.730Z,69.47
2018-11-23T07:08:54.583Z,70.00
2018-11-23T07:11:27.504Z,59.65
2018-11-23T07:14:03.995Z,56.20
2018-11-23T07:16:37.612Z,53.10
2018-11-23T07:19:10.616Z,60.95
2018-11-23T07:21:43.345Z,55.83
2018-11-23T07:24:16.473Z,53.17
2018-11-23T07:26:49.668Z,62.80
2018-11-23T07:29:22.626Z,53.77
2018-11-23T07:31:56.884Z,53.17
2018-11-23T07:34:30.257Z,55.23
2018-11-23T07:37:03.601Z,64.57
2018-11-23T07:39:58.892Z,60.00
2018-11-23T07:42:33.008Z,56.17
2018-11-23T07:45:08.765Z,60.03
2018-11-23T07:47:41.581Z,64.13
2018-11-23T07:50:14.932Z,63.20
2018-11-23T07:52:48.157Z,61.40
2018-11-23T07:55:21.076Z,60.60
2018-11-23T07:57:54.545Z,61.17
2018-11-23T08:00:28.052Z,62.17
2018-11-23T08:03:01.781Z,60.87
2018-11-23T08:05:35.629Z,52.55
2018-11-23T08:08:09.597Z,50.15
2018-11-23T08:10:41.903Z,54.77
2018-11-23T08:13:14.911Z,53.77
2018-11-23T08:15:48.313Z,52.17
2018-11-23T08:18:23.172Z,53.33
2018-11-23T08:21:00.703Z,52.53
2018-11-23T08:23:37.430Z,51.27
2018-11-23T08:26:12.582Z,49.43
2018-11-23T08:28:47.101Z,50.83
2018-11-23T08:31:20.515Z,53.20
2018-11-23T08:33:54.574Z,51.47
2018-11-23T08:36:27.711Z,49.97
2018-11-23T08:39:04.685Z,46.53
2018-11-23T08:41:39.189Z,45.93
2018-11-23T08:44:12.420Z,46.30
2018-11-23T08:46:46.102Z,46.43
2018-11-23T08:49:20.377Z,39.65
2018-11-23T08:51:53.952Z,45.03
2018-11-23T08:54:26.745Z,41.87
2018-11-23T08:57:02.264Z,41.20
2018-11-23T08:59:35.406Z,43.27
2018-11-23T09:02:08.918Z,41.03
2018-11-23T09:04:41.825Z,38.45
2018-11-23T09:07:16.285Z,40.10
2018-11-23T09:09:50.838Z,42.07
2018-11-23T09:12:25.308Z,59.83
2018-11-23T09:15:10.887Z,37.17
2018-11-23T09:17:47.797Z,39.70
2018-11-23T09:20:22.867Z,36.40
2018-11-23T09:22:56.486Z,38.20
2018-11-23T09:25:30.317Z,38.70
2018-11-23T09:28:04.012Z,36.63
2018-11-23T09:30:38.358Z,36.80
2018-11-23T09:33:12.797Z,37.20
2018-11-23T09:35:52.903Z,37.43
2018-11-23T09:38:27.844Z,38.53
2018-11-23T09:41:03.378Z,38.30
2018-11-23T09:43:38.407Z,43.47
2018-11-23T09:46:14.469Z,37.97
2018-11-23T09:48:47.816Z,34.63
2018-11-23T09:51:22.424Z,34.17
2018-11-23T09:53:56.812Z,33.70
2018-11-23T09:56:30.507Z,32.87
2018-11-23T09:59:05.809Z,32.80
2018-11-23T10:01:39.400Z,31.93
2018-11-23T10:04:12.807Z,31.50
2018-11-23T10:06:47.931Z,32.40
2018-11-23T10:09:22.978Z,28.47
2018-11-23T10:11:57.420Z,29.17
2018-11-23T10:14:30.201Z,28.40
2018-11-23T10:17:03.945Z,26.73
2018-11-23T10:19:39.119Z,28.53
2018-11-23T10:22:12.214Z,27.23
2018-11-23T10:24:46.701Z,25.17
2018-11-23T10:27:21.321Z,26.70
2018-11-23T10:29:55.389Z,24.63
2018-11-23T10:32:30.361Z,23.97
2018-11-23T10:35:03.259Z,25.67
2018-11-23T10:37:38.290Z,25.93
2018-11-23T10:40:17.261Z,25.53
2018-11-23T10:42:51.201Z,25.25
2018-11-23T10:45:26.146Z,24.50
2018-11-23T10:48:03.857Z,26.93
2018-11-23T10:50:40.276Z,21.87
2018-11-23T10:53:15.792Z,20.73
2018-11-23T10:55:49.148Z,20.92
2018-11-23T10:58:22.394Z,21.77
2018-11-23T11:01:01.526Z,23.03
2018-11-23T11:03:58.881Z,22.93
2018-11-23T11:06:40.554Z,21.20
2018-11-23T11:09:14.673Z,35.77
2018-11-23T11:11:48.160Z,18.93
2018-11-23T11:14:21.425Z,22.33
2018-11-23T11:16:55.267Z,20.47
2018-11-23T11:19:29.523Z,21.90
2018-11-23T11:22:03.606Z,20.03
2018-11-23T11:24:36.937Z,18.33
2018-11-23T11:27:10.466Z,19.37
2018-11-23T11:29:43.717Z,18.43
2018-11-23T11:32:16.528Z,18.67
2018-11-23T11:34:51.778Z,16.87
2018-11-23T11:37:25.358Z,21.20
2018-11-23T11:39:59.717Z,16.47
2018-11-23T11:42:34.853Z,18.10
2018-11-23T11:45:14.937Z,17.50
2018-11-23T11:47:49.439Z,15.70
2018-11-23T11:50:22.700Z,17.33
2018-11-23T11:52:56.727Z,16.53
2018-11-23T11:55:31.922Z,16.57
2018-11-23T11:58:05.680Z,15.43
2018-11-23T12:00:39.813Z,14.40
2018-11-23T12:03:14.713Z,14.67
2018-11-23T12:05:49.199Z,14.53
2018-11-23T12:08:24.255Z,14.93
2018-11-23T12:10:57.964Z,14.60
2018-11-23T12:13:34.583Z,15.63
2018-11-23T12:16:08.081Z,12.00
2018-11-23T12:18:41.781Z,11.83
2018-11-23T12:21:14.537Z,12.93
2018-11-23T12:23:48.447Z,13.00
2018-11-23T12:26:22.977Z,15.13
2018-11-23T12:28:57.421Z,13.93
2018-11-23T12:31:31.551Z,12.53
2018-11-23T12:34:05.473Z,11.00
2018-11-23T12:36:39.708Z,14.80
2018-11-23T12:39:12.647Z,13.30
2018-11-23T12:41:51.556Z,12.10
2018-11-23T12:44:26.481Z,11.43
2018-11-23T12:47:00.764Z,13.07
2018-11-23T12:49:33.677Z,11.77
2018-11-23T12:52:07.704Z,10.20
2018-11-23T12:54:41.324Z,10.97
2018-11-23T12:57:14.509Z,12.47
2018-11-23T12:59:50.735Z,14.40
2018-11-23T13:02:26.255Z,11.67
2018-11-23T13:04:59.268Z,12.27
2018-11-23T13:07:32.526Z,11.07
2018-11-23T13:10:09.275Z,10.90
2018-11-23T13:12:44.420Z,12.47
2018-11-23T13:15:17.249Z,10.13
2018-11-23T13:17:50.988Z,11.17
2018-11-23T13:20:25.847Z,10.07
2018-11-23T13:22:59.193Z,12.40
2018-11-23T13:25:33.108Z,11.17
2018-11-23T13:28:06.717Z,12.03
2018-11-23T13:30:41.783Z,11.90
2018-11-23T13:33:16.685Z,15.00
2018-11-23T13:35:53.364Z,12.10
2018-11-23T13:38:28.218Z,12.30
2018-11-23T13:41:01.561Z,11.60
2018-11-23T13:43:35.770Z,13.57
2018-11-23T13:46:09.860Z,12.03
2018-11-23T13:48:43.731Z,12.03
2018-11-23T13:51:17.509Z,11.00
2018-11-23T13:53:51.576Z,13.07
2018-11-23T13:56:25.726Z,12.83
2018-11-23T13:58:59.205Z,11.27
2018-11-23T14:01:34.458Z,11.93
2018-11-23T14:04:08.369Z,12.33
2018-11-23T14:06:44.107Z,11.43
2018-11-23T14:09:18.108Z,9.70
2018-11-23T14:11:51.333Z,11.00
2018-11-23T14:14:25.815Z,13.97
2018-11-23T14:17:01.934Z,10.33
2018-11-23T14:19:39.503Z,10.73
2018-11-23T14:22:15.304Z,10.50
2018-11-23T14:24:50.593Z,9.40
2018-11-23T14:27:26.596Z,10.00
2018-11-23T14:30:03.646Z,9.97
2018-11-23T14:32:39.844Z,10.10
2018-11-23T14:35:14.980Z,11.07
2018-11-23T14:37:53.098Z,10.57
2018-11-23T14:40:27.046Z,12.90
2018-11-23T14:43:00.537Z,10.47
2018-11-23T14:45:34.749Z,12.73
2018-11-23T14:48:09.196Z,10.30
2018-11-23T14:50:49.756Z,9.53
2018-11-23T14:53:22.839Z,10.53
2018-11-23T14:55:57.433Z,10.73
2018-11-23T14:58:30.272Z,11.67
2018-11-23T15:01:05.377Z,12.27
2018-11-23T15:03:38.862Z,12.83
2018-11-23T15:06:13.413Z,10.63
2018-11-23T15:08:48.542Z,11.15
2018-11-23T15:11:22.481Z,9.85
2018-11-23T15:13:56.079Z,10.30
2018-11-23T15:16:31.633Z,9.47
2018-11-23T15:19:04.989Z,12.70
2018-11-23T15:21:43.803Z,14.30
2018-11-23T15:24:21.550Z,13.87
2018-11-23T15:26:55.029Z,11.37
2018-11-23T15:29:28.352Z,10.43
2018-11-23T15:32:01.574Z,12.37
2018-11-23T15:34:35.819Z,11.97
2018-11-23T15:37:10.567Z,11.63
2018-11-23T15:39:43.476Z,11.47
2018-11-23T15:42:18.501Z,11.37
2018-11-23T15:44:53.863Z,12.80
2018-11-23T15:47:28.037Z,14.33
2018-11-23T15:50:00.887Z,11.25
2018-11-23T15:52:38.245Z,14.67
2018-11-23T15:55:16.808Z,11.93
2018-11-23T15:57:54.821Z,12.45
2018-11-23T16:00:37.383Z,16.73
2018-11-23T16:03:13.808Z,21.40
2018-11-23T16:05:48.947Z,17.03
2018-11-23T16:08:27.566Z,15.13
2018-11-23T16:11:01.724Z,21.30
2018-11-23T16:13:43.359Z,20.13
2018-11-23T16:16:18.970Z,21.17
2018-11-23T16:18:57.622Z,18.07
2018-11-23T16:21:32.960Z,30.40
2018-11-23T16:24:07.219Z,22.33
2018-11-23T16:26:42.317Z,17.10
2018-11-23T16:29:16.720Z,14.93
2018-11-23T16:31:51.591Z,17.37
2018-11-23T16:34:25.318Z,17.87
2018-11-23T16:37:01.040Z,15.20
2018-11-23T16:39:35.572Z,12.50
2018-11-23T16:42:09.678Z,15.17
2018-11-23T16:44:44.283Z,13.67
2018-11-23T16:47:20.312Z,15.43
2018-11-23T16:49:54.747Z,20.73
2018-11-23T16:52:28.664Z,18.30
2018-11-23T16:55:09.574Z,17.13
2018-11-23T16:57:46.234Z,18.30
2018-11-23T17:00:23.784Z,14.82
2018-11-23T17:03:00.089Z,13.60
2018-11-23T17:05:42.671Z,16.57
2018-11-23T17:08:21.249Z,16.77
2018-11-23T17:11:01.549Z,22.43
2018-11-23T17:13:35.826Z,18.73
2018-11-23T17:16:10.457Z,18.70
2018-11-23T17:18:48.800Z,19.17
2018-11-23T17:21:26.546Z,21.03
2018-11-23T17:24:05.392Z,31.70
2018-11-23T17:26:38.521Z,87.17
2018-11-23T17:29:14.421Z,49.13
2018-11-23T17:31:49.593Z,40.85
2018-11-23T17:34:23.590Z,36.23
2018-11-23T17:36:57.083Z,30.37
2018-11-23T17:39:31.717Z,29.57
2018-11-23T17:42:10.007Z,32.63
2018-11-23T17:44:45.026Z,28.92
2018-11-23T17:47:21.294Z,23.33
2018-11-23T17:49:57.523Z,27.00
2018-11-23T17:52:30.898Z,22.60
2018-11-23T17:55:08.416Z,23.55
2018-11-23T17:57:42.781Z,23.10
2018-11-23T18:00:22.167Z,22.90
2018-11-23T18:02:56.716Z,20.77
2018-11-23T18:05:35.343Z,21.90
2018-11-23T18:08:11.626Z,21.27
2018-11-23T18:10:54.159Z,24.03
2018-11-23T18:13:29.674Z,20.87
2018-11-23T18:16:06.257Z,26.93
2018-11-23T18:18:39.951Z,23.93
2018-11-23T18:21:15.296Z,24.67
2018-11-23T18:23:52.134Z,26.50
2018-11-23T18:26:27.881Z,22.70
2018-11-23T18:29:02.839Z,22.35
2018-11-23T18:31:42.044Z,25.27
2018-11-23T18:34:16.631Z,22.90
2018-11-23T18:36:51.441Z,22.43
2018-11-23T18:39:27.608Z,20.60
2018-11-23T18:42:03.754Z,22.10
2018-11-23T18:45:21.081Z,23.87
2018-11-23T18:48:07.253Z,17.87
2018-11-23T18:50:41.212Z,21.03
2018-11-23T18:53:16.135Z,20.90
2018-11-23T18:55:53.260Z,23.40
2018-11-23T18:58:28.545Z,16.80
2018-11-23T19:01:04.390Z,17.37
2018-11-23T19:03:40.594Z,19.07
2018-11-23T19:06:15.538Z,17.23
2018-11-23T19:08:54.476Z,18.20
2018-11-23T19:11:27.763Z,21.03
2018-11-23T19:14:04.113Z,24.42
2018-11-23T19:16:41.605Z,24.55
2018-11-23T19:19:21.742Z,24.07
2018-11-23T19:21:55.573Z,24.90
2018-11-23T19:24:30.585Z,23.35
2018-11-23T19:27:03.984Z,20.77
2018-11-23T19:29:41.391Z,19.87
2018-11-23T19:32:17.808Z,19.17
2018-11-23T19:34:56.604Z,20.03
2018-11-23T19:37:30.716Z,18.90
2018-11-23T19:40:06.951Z,22.10
2018-11-23T19:42:43.753Z,19.33
2018-11-23T19:45:18.145Z,24.30
2018-11-23T19:47:53.227Z,21.77
2018-11-23T19:50:27.424Z,23.03
2018-11-23T19:53:03.720Z,25.40
2018-11-23T19:55:38.678Z,26.90
2018-11-23T19:58:13.224Z,41.00
2018-11-23T20:01:02.281Z,27.43
2018-11-23T20:03:37.460Z,23.77
2018-11-23T20:06:13.083Z,23.77
2018-11-23T20:08:52.626Z,40.20
2018-11-23T20:11:27.534Z,28.37
2018-11-23T20:14:04.313Z,30.73
2018-11-23T20:16:41.267Z,25.10
2018-11-23T20:19:14.297Z,24.30
2018-11-23T20:21:50.872Z,24.37
2018-11-23T20:24:27.540Z,25.57
2018-11-23T20:27:01.523Z,28.17
2018-11-23T20:29:38.462Z,29.17
2018-11-23T20:32:20.103Z,24.37
2018-11-23T20:34:57.302Z,26.53
2018-11-23T20:37:31.879Z,25.30
2018-11-23T20:40:10.307Z,27.70
2018-11-23T20:42:49.657Z,23.67
2018-11-23T20:45:22.981Z,45.23
2018-11-23T20:48:06.570Z,41.67
2018-11-23T20:50:43.210Z,33.77
2018-11-23T20:53:18.201Z,45.90
2018-11-23T20:55:53.485Z,45.23
2018-11-23T20:58:34.030Z,41.37
2018-11-23T21:01:09.325Z,50.37
2018-11-23T21:03:43.719Z,38.13
2018-11-23T21:06:19.147Z,41.83
2018-11-23T23:45:56.622Z,39.33
2018-11-23T23:48:32.756Z,44.80
2018-11-23T23:51:10.494Z,37.25
2018-11-23T23:54:07.954Z,50.93
2018-11-23T23:56:53.697Z,34.97
